Pagina principale
METAR-TAF:

METAR-TAF

Aeroporti :

Belgrado, Serbia

Aeroporto di Belgrado-Nikola Tesla

latitudine: 44-49N, longitudine: 020-17E, altezza: 96 m

Osservazione

Il bollettino è stato emesso 8 minuti fa, alle 08:00 UTC
Vento 9 kt da nord/nord-ovest
Temperature 20°C
Umidità 60%
Pressione 1018 hPa
Visibilità 10 km o più
nessuna nube inferiore a 1500 m e nessun cumulonembo

METAR: LYBE 270800Z 33009KT CAVOK 20/12 Q1018 NOSIG

Ora: 10:08 (08:08 UTC)

Previsione

Il bollettino è stato emesso 3 ore e 8 minuti fa, alle 05:00 UTC
Previsione valida dal 27 alle 06 UTC al 28 alle 06 UTC
Vento 7 kt da nord-ovest
Visibilità 10 km o più
Nubi sparse ad un'altezza di 4000 ft
Temporaneamente
dal 27 alle 12 UTC al 27 alle 17 UTC
Vento 18 kt da nord/nord-ovest

TAF: LYBE 270500Z 2706/2806 32007KT 9999 SCT040 TX25/2713Z TN11/2803Z TEMPO 2712/2717 34018KT

Osservazioni e previsioni meteorologiche di più di 4000 aeroporti (messaggi METAR e TAF).

Le stazioni disponibili sono rappresentate dai dischi gialli e rossi sulla carta.

Puntare il mouse per vedere il nome della stazione.

Clicca sopra per visualizzare le osservazioni e previsioni meteorologiche.

Per cambiare la mappa : fare clic sui pulsanti verdi con una croce nera per ingrandire, il pulsante verde con un trattino per diminuire, o sulla freccia verde per le mappe adiacenti.


METAR-TAF: